This demonstration page uses our WeatherBlox Daily Observations layout. Learn more.

41.55636, -103.73856

Hourly Observations for October 14, 2019

Temp ( °F °C ) Dew Point ( °F °C ) Humidity (%) Winds ( mph kmh ) Pressure ( in mb ) Visibility ( mi km ) Precip ( " mm )
12:58 am 00:58 Clear 38 3.2 19 -7.2 47 47 WSW 8 13 30 1016 10 16.0934 N/A
1:58 am 01:58 Mostly Clear 37 2.8 20 -6.7 50 50 W 9 15 30 1016 10 16.0934 N/A
2:58 am 02:58 Clear 37 2.5 21 -6.2 53 53 W 9 15 30 1016 10 16.0934 N/A
3:58 am 03:58 Mostly Clear 33 0.8 22 -5.7 62 62 W 8 13 30.02 1017 10 16.0934 N/A
4:58 am 04:58 Mostly Cloudy 38 3.2 21 -5.9 52 52 WNW 8 13 29.97 1015 10 16.0934 N/A
5:58 am 05:58 Mostly Cloudy 39 3.7 20 -6.5 48 48 W 9 15 29.97 1015 10 16.0934 N/A
6:58 am 06:58 Mostly Cloudy 38 3.3 20 -6.7 48 48 W 7 11 29.98 1015 10 16.0934 N/A
7:58 am 07:58 Sunny 42 5.3 17 -8.4 37 37 W 8 13 29.94 1014 10 16.0934 N/A
8:58 am 08:58 Sunny 53 11.9 20 -6.8 27 27 W 13 20 29.87 1011 10 16.0934 N/A
9:58 am 09:58 Sunny 63 17.4 13 -10.4 14 14 W 25 41 29.85 1011 10 16.0934 N/A
10:58 am 10:58 Sunny 67 19.3 10 -12.1 11 11 W 21 33 29.83 1010 10 16.0934 N/A
11:58 am 11:58 Sunny 68 20.2 11 -11.5 11 11 WNW 26 43 29.81 1009 10 16.0934 N/A
12:58 pm 12:58 Sunny 69 20.8 10 -12.2 10 10 NW 25 41 29.82 1010 10 16.0934 N/A
1:58 pm 13:58 Sunny 71 21.6 9 -12.6 9 9 WNW 25 41 29.8 1009 10 16.0934 N/A
2:58 pm 14:58 Sunny 71 21.7 8 -13.1 9 9 NW 21 33 29.8 1009 10 16.0934 N/A
3:58 pm 15:58 Sunny 71 21.4 8 -13.2 9 9 NW 17 28 29.8 1009 10 16.0934 N/A
4:58 pm 16:58 Sunny 69 20.7 8 -13.2 9 9 NW 16 26 29.8 1009 10 16.0934 N/A
5:58 pm 17:58 Sunny 63 17 9 -12.6 12 12 NW 9 15 29.83 1010 10 16.0934 N/A
6:58 pm 18:58 Clear 53 11.7 13 -10.6 20 20 WNW 12 19 29.89 1012 10 16.0934 N/A
7:58 pm 19:58 Clear 46 7.6 15 -9.4 29 29 NW 10 17 29.92 1013 10 16.0934 N/A
8:58 pm 20:58 Clear 47 8.2 15 -9.7 27 27 NW 12 19 29.91 1013 10 16.0934 N/A
9:58 pm 21:58 Partly Cloudy 48 8.8 14 -10.1 25 25 NNW 13 20 29.91 1013 10 16.0934 N/A
10:58 pm 22:58 Clear 43 5.9 25 -4.1 49 49 N 12 19 29.96 1015 10 16.0934 N/A
11:58 pm 23:58 Mostly Clear 41 5 31 -0.6 67 67 NNE 17 28 30.01 1016 10 16.0934 N/A

Powered by AerisWeather